createdAt,value
2023-01-15T00:02:17.676Z,12.80
2023-01-15T00:05:19.601Z,12.77
2023-01-15T00:08:21.813Z,13.50
2023-01-15T00:11:24.569Z,12.70
2023-01-15T00:14:26.555Z,12.27
2023-01-15T00:17:28.485Z,13.73
2023-01-15T00:20:31.070Z,15.65
2023-01-15T00:23:54.282Z,14.80
2023-01-15T00:27:14.629Z,12.70
2023-01-15T00:30:18.305Z,15.52
2023-01-15T00:33:20.251Z,14.85
2023-01-15T00:36:23.729Z,14.70
2023-01-15T00:39:26.694Z,14.85
2023-01-15T00:42:28.572Z,15.00
2023-01-15T00:45:31.177Z,13.77
2023-01-15T00:48:33.057Z,14.77
2023-01-15T00:51:35.825Z,15.20
2023-01-15T00:54:37.885Z,13.55
2023-01-15T00:57:40.310Z,14.73
2023-01-15T01:00:42.725Z,14.88
2023-01-15T01:03:48.963Z,14.63
2023-01-15T01:06:51.054Z,14.95
2023-01-15T01:09:53.252Z,14.07
2023-01-15T01:12:56.352Z,13.30
2023-01-15T01:15:58.553Z,14.35
2023-01-15T01:19:03.649Z,13.45
2023-01-15T01:22:05.589Z,14.18
2023-01-15T01:25:08.671Z,14.20
2023-01-15T01:28:11.683Z,14.53
2023-01-15T01:34:17.209Z,16.90
2023-01-15T01:37:19.284Z,16.20
2023-01-15T01:40:21.671Z,16.73
2023-01-15T01:43:27.729Z,18.40
2023-01-15T01:46:31.896Z,17.63
2023-01-15T01:49:35.496Z,18.60
2023-01-15T01:52:43.946Z,17.48
2023-01-15T01:55:46.979Z,18.48
2023-01-15T01:58:53.216Z,19.07
2023-01-15T02:01:55.311Z,17.98
2023-01-15T02:04:57.422Z,18.60
2023-01-15T02:08:00.779Z,19.25
2023-01-15T02:11:04.136Z,19.52
2023-01-15T02:14:11.295Z,19.67
2023-01-15T02:17:24.596Z,20.17
2023-01-15T02:21:11.786Z,20.50
2023-01-15T02:24:28.608Z,19.63
2023-01-15T02:27:31.488Z,20.17
2023-01-15T02:30:44.633Z,19.03
2023-01-15T02:33:52.979Z,18.75
2023-01-15T02:37:04.651Z,19.75
2023-01-15T02:40:10.940Z,19.25
2023-01-15T02:43:15.595Z,19.92
2023-01-15T02:46:22.718Z,19.93
2023-01-15T02:49:25.702Z,19.35
2023-01-15T02:52:35.797Z,20.58
2023-01-15T02:55:43.229Z,19.52
2023-01-15T02:58:49.161Z,18.98
2023-01-15T03:01:58.308Z,20.17
2023-01-15T03:05:07.552Z,18.75
2023-01-15T03:08:11.466Z,18.73
2023-01-15T03:11:20.837Z,18.88
2023-01-15T03:15:02.471Z,20.38
2023-01-15T03:18:08.414Z,19.00
2023-01-15T03:21:13.622Z,19.98
2023-01-15T03:24:24.996Z,18.45
2023-01-15T03:27:27.624Z,18.80
2023-01-15T03:30:34.070Z,19.00
2023-01-15T03:33:36.277Z,18.67
2023-01-15T03:36:39.596Z,18.67
2023-01-15T03:39:42.867Z,18.00
2023-01-15T03:43:27.851Z,19.13
2023-01-15T03:46:36.220Z,17.88
2023-01-15T03:50:23.436Z,16.87
2023-01-15T03:53:47.217Z,17.92
2023-01-15T03:57:02.555Z,16.95
2023-01-15T04:00:18.932Z,17.10
2023-01-15T04:03:28.962Z,18.08
2023-01-15T04:06:35.278Z,17.53
2023-01-15T04:09:40.334Z,15.73
2023-01-15T04:12:45.035Z,16.83
2023-01-15T04:15:47.145Z,17.05
2023-01-15T04:18:49.274Z,16.15
2023-01-15T04:21:51.368Z,17.20
2023-01-15T04:24:55.059Z,18.60
2023-01-15T04:27:57.029Z,16.55
2023-01-15T04:31:00.216Z,18.10
2023-01-15T04:34:03.298Z,17.75
2023-01-15T04:37:05.220Z,16.00
2023-01-15T04:40:08.247Z,14.68
2023-01-15T04:43:31.777Z,16.52
2023-01-15T04:46:51.586Z,17.48
2023-01-15T04:49:53.889Z,16.67
2023-01-15T04:52:55.754Z,14.63
2023-01-15T04:56:05.083Z,16.20
2023-01-15T04:59:07.133Z,16.63
2023-01-15T05:02:09.018Z,15.48
2023-01-15T05:05:10.965Z,16.63
2023-01-15T05:08:12.833Z,15.67
2023-01-15T05:11:15.317Z,15.50
2023-01-15T05:14:17.153Z,16.73
2023-01-15T05:17:19.038Z,15.77
2023-01-15T05:20:21.251Z,15.90
2023-01-15T05:23:24.163Z,17.10
2023-01-15T05:26:26.845Z,17.23
2023-01-15T05:29:28.844Z,16.60
2023-01-15T05:32:31.507Z,17.88
2023-01-15T05:35:33.361Z,17.17
2023-01-15T05:38:35.674Z,16.40
2023-01-15T05:41:49.788Z,17.73
2023-01-15T05:44:51.776Z,19.02
2023-01-15T05:47:53.958Z,16.63
2023-01-15T05:51:02.106Z,15.75
2023-01-15T05:54:05.931Z,15.63
2023-01-15T05:57:11.897Z,17.27
2023-01-15T06:00:14.766Z,15.98
2023-01-15T06:03:18.258Z,15.80
2023-01-15T06:06:20.134Z,15.63
2023-01-15T06:09:23.248Z,16.40
2023-01-15T06:12:25.221Z,17.17
2023-01-15T06:15:27.071Z,14.95
2023-01-15T06:18:29.090Z,15.50
2023-01-15T06:21:32.343Z,14.60
2023-01-15T06:24:34.209Z,15.07
2023-01-15T06:27:36.059Z,14.20
2023-01-15T06:30:39.856Z,13.77
2023-01-15T06:33:42.182Z,15.68
2023-01-15T06:36:44.131Z,14.35
2023-01-15T06:39:46.085Z,14.60
2023-01-15T06:43:06.544Z,15.68
2023-01-15T06:46:28.453Z,13.10
2023-01-15T06:49:31.505Z,15.15
2023-01-15T06:52:33.372Z,13.70
2023-01-15T06:55:35.322Z,12.67
2023-01-15T06:58:38.407Z,13.35
2023-01-15T07:01:40.636Z,13.68
2023-01-15T07:04:42.459Z,15.65
2023-01-15T07:07:44.461Z,15.10
2023-01-15T07:10:47.247Z,13.10
2023-01-15T07:13:49.465Z,13.63
2023-01-15T07:16:52.232Z,12.23
2023-01-15T07:19:54.184Z,11.95
2023-01-15T07:22:56.303Z,11.10
2023-01-15T07:25:58.407Z,8.60
2023-01-15T07:29:00.367Z,11.38
2023-01-15T07:32:02.405Z,8.98
2023-01-15T07:35:04.634Z,11.13
2023-01-15T07:38:06.577Z,12.75
2023-01-15T07:41:27.176Z,10.83
2023-01-15T07:44:47.464Z,9.57
2023-01-15T07:48:07.937Z,9.13
2023-01-15T07:51:10.170Z,11.20
2023-01-15T07:54:11.997Z,10.00
2023-01-15T07:57:16.671Z,10.60
2023-01-15T08:00:22.917Z,10.98
2023-01-15T08:03:26.377Z,12.45
2023-01-15T08:06:28.602Z,10.23
2023-01-15T08:09:30.548Z,8.80
2023-01-15T08:12:51.007Z,14.40
2023-01-15T08:15:52.856Z,13.05
2023-01-15T08:18:54.793Z,13.23
2023-01-15T08:21:57.450Z,14.57
2023-01-15T08:24:59.413Z,17.90
2023-01-15T08:28:03.219Z,15.60
2023-01-15T08:31:08.686Z,16.25
2023-01-15T08:34:10.697Z,12.20
2023-01-15T08:37:12.783Z,14.73
2023-01-15T08:40:14.844Z,14.98
2023-01-15T08:43:17.262Z,16.20
2023-01-15T08:46:19.253Z,9.52
2023-01-15T08:49:21.476Z,14.55
2023-01-15T08:52:23.341Z,14.35
2023-01-15T08:55:25.354Z,14.90
2023-01-15T08:58:49.721Z,16.47
2023-01-15T09:02:15.605Z,12.98
2023-01-15T09:05:17.691Z,13.43
2023-01-15T09:08:20.414Z,16.30
2023-01-15T09:11:22.385Z,16.55
2023-01-15T09:14:55.572Z,15.30
2023-01-15T09:17:46.147Z,17.70
2023-01-15T09:20:48.489Z,19.27
2023-01-15T09:23:50.389Z,17.85
2023-01-15T09:26:53.904Z,20.95
2023-01-15T09:29:56.769Z,15.17
2023-01-15T09:32:58.664Z,16.17
2023-01-15T09:36:00.562Z,18.08
2023-01-15T09:39:04.577Z,17.30
2023-01-15T09:42:17.635Z,16.73
2023-01-15T09:45:26.121Z,19.93
2023-01-15T09:48:36.985Z,20.83
2023-01-15T09:51:54.355Z,16.20
2023-01-15T09:55:01.011Z,18.40
2023-01-15T09:58:06.351Z,16.65
2023-01-15T10:01:17.223Z,14.13
2023-01-15T10:04:34.310Z,15.23
2023-01-15T10:07:46.701Z,15.27
2023-01-15T10:10:54.690Z,15.02
2023-01-15T10:14:03.891Z,14.73
2023-01-15T10:17:35.002Z,13.30
2023-01-15T10:20:52.318Z,18.55
2023-01-15T10:24:06.111Z,14.57
2023-01-15T10:27:23.600Z,14.30
2023-01-15T10:30:46.777Z,15.10
2023-01-15T10:34:15.051Z,15.70
2023-01-15T10:37:27.559Z,13.30
2023-01-15T10:40:29.373Z,10.02
2023-01-15T10:43:55.532Z,14.07
2023-01-15T10:47:01.865Z,13.95
2023-01-15T10:50:17.822Z,14.43
2023-01-15T10:53:41.972Z,12.70
2023-01-15T10:57:02.033Z,10.07
2023-01-15T11:00:04.483Z,10.45
2023-01-15T11:03:16.729Z,11.43
2023-01-15T11:06:21.210Z,10.30
2023-01-15T11:09:33.947Z,12.77
2023-01-15T11:12:54.893Z,11.07
2023-01-15T11:16:15.576Z,11.63
2023-01-15T11:19:37.420Z,11.55
2023-01-15T11:22:39.511Z,10.57
2023-01-15T11:25:50.225Z,9.45
2023-01-15T11:28:53.101Z,11.43
2023-01-15T11:31:55.338Z,11.85
2023-01-15T11:34:59.695Z,11.40
2023-01-15T11:38:14.381Z,9.40
2023-01-15T11:41:55.297Z,11.32
2023-01-15T11:45:16.826Z,9.43
2023-01-15T11:48:42.467Z,11.38
2023-01-15T11:51:48.848Z,10.02
2023-01-15T11:54:54.356Z,9.30
2023-01-15T11:57:58.451Z,10.77
2023-01-15T12:01:01.252Z,12.15
2023-01-15T12:04:22.756Z,10.10
2023-01-15T12:07:26.740Z,10.90
2023-01-15T12:11:14.223Z,9.57
2023-01-15T12:14:35.516Z,10.45
2023-01-15T12:18:07.745Z,11.23
2023-01-15T12:21:21.966Z,9.40
2023-01-15T12:24:51.637Z,13.65
2023-01-15T12:28:03.436Z,11.40
2023-01-15T12:31:13.112Z,16.08
2023-01-15T12:34:42.943Z,12.70
2023-01-15T12:37:50.764Z,15.30
2023-01-15T12:41:06.533Z,14.10
2023-01-15T12:44:28.747Z,11.33
2023-01-15T12:48:07.496Z,14.90
2023-01-15T12:51:15.604Z,14.57
2023-01-15T13:22:43.169Z,12.95
2023-01-15T13:26:15.502Z,12.25
2023-01-15T13:29:27.625Z,12.17
2023-01-15T13:32:34.498Z,11.73
2023-01-15T13:35:49.969Z,13.57
2023-01-15T13:38:55.935Z,14.63
2023-01-15T13:42:16.998Z,12.65
2023-01-15T13:45:49.927Z,10.80
2023-01-15T13:48:52.739Z,11.82
2023-01-15T13:51:58.815Z,14.57
2023-01-15T13:55:32.723Z,13.80
2023-01-15T13:58:39.306Z,14.73
2023-01-15T14:01:41.478Z,13.47
2023-01-15T14:04:43.401Z,12.00
2023-01-15T14:07:45.388Z,9.43
2023-01-15T14:10:48.781Z,12.25
2023-01-15T14:14:01.629Z,12.68
2023-01-15T14:17:09.584Z,12.30
2023-01-15T14:20:14.550Z,10.70
2023-01-15T14:23:40.388Z,12.88
2023-01-15T14:26:42.192Z,12.60
2023-01-15T14:29:47.910Z,13.38
2023-01-15T14:32:52.456Z,8.77
2023-01-15T14:35:54.523Z,14.95
2023-01-15T14:39:01.803Z,14.32
2023-01-15T14:42:30.335Z,12.25
2023-01-15T14:45:41.251Z,12.43
2023-01-15T14:48:43.256Z,12.97
2023-01-15T14:51:50.232Z,13.05
2023-01-15T14:54:53.531Z,10.77
2023-01-15T14:58:05.588Z,13.63
2023-01-15T15:01:21.924Z,15.10
2023-01-15T15:04:42.474Z,14.23
2023-01-15T15:07:52.700Z,13.13
2023-01-15T15:10:57.852Z,12.95
2023-01-15T15:14:01.868Z,15.00
2023-01-15T15:17:11.812Z,16.10
2023-01-15T15:20:25.717Z,15.63
2023-01-15T21:27:59.992Z,16.85
2023-01-15T21:31:04.153Z,11.82
2023-01-15T21:34:09.354Z,17.17
2023-01-15T21:37:11.296Z,15.15
2023-01-15T21:40:13.493Z,14.30
2023-01-15T21:43:34.065Z,16.17
2023-01-15T21:46:36.042Z,12.30
2023-01-15T21:49:38.307Z,19.00
2023-01-15T21:52:40.223Z,20.27
2023-01-15T22:10:28.325Z,18.58
2023-01-15T22:13:30.236Z,17.83
2023-01-15T22:16:32.169Z,18.60
2023-01-15T22:19:34.676Z,20.23
2023-01-15T22:22:39.120Z,22.27
2023-01-15T22:25:43.142Z,21.02
2023-01-15T22:28:57.904Z,23.60
2023-01-15T22:32:01.079Z,22.00
2023-01-15T22:35:03.316Z,19.60
2023-01-15T22:38:05.515Z,21.15
2023-01-15T22:41:07.456Z,20.50
2023-01-15T22:44:10.135Z,21.40
2023-01-15T22:47:12.869Z,20.70
2023-01-15T22:50:14.857Z,21.77
2023-01-15T22:53:16.718Z,20.25
2023-01-15T22:56:18.542Z,21.15
2023-01-15T22:59:20.827Z,20.88
2023-01-15T23:02:42.611Z,20.43
2023-01-15T23:05:44.579Z,20.40
2023-01-15T23:08:46.493Z,19.27
2023-01-15T23:11:50.422Z,18.65
2023-01-15T23:14:52.401Z,21.13
2023-01-15T23:17:54.252Z,20.07
